Dobrota — J8UW4 — position and weather

sailwx.info

Track history (hours):
 
Tides and Currents Weather Stations Pressure Air Temp Water Temp Dewpoint Dewpoint Depression Visibility Wind Speed Wind Dir Waves Ship Positions

Dobrota

Last reported at 2014-Nov-15 23:29 UTC. Time now 2014-Nov-24 17:44 UTC.
Position N 32°22' E 015°19'.
Warning: this ship's position is 8 days out of date.

Length 185 m; draft 9.8 m.

Type: Cargo ship. MMSI: 376409000.

Date/timePositionNaut miles runAvg speedWind from/ knotsBaromVisibWave heightAir tempDewpointWater temp
2014-Nov-15 23:29N 32°22' E 015°19'  
2014-Nov-11 14:30N 36°36' E 023°35'1212.5
2014-Nov-11 13:33N 36°46' E 023°44'1312.5
2014-Nov-11 12:33N 36°57' E 023°53'1312.5
2014-Nov-11 11:33N 37°07' E 024°01'1312.6
2014-Nov-11 10:33N 37°17' E 024°10'1612.7
2014-Nov-11 09:17N 37°31' E 024°21'912.5
2014-Nov-11 08:33N 37°39' E 024°27'1312.3
2014-Nov-11 07:32N 37°50' E 024°32'260 7.9
2014-Nov-09 22:32N 40°53' E 028°33'1211.6
2014-Nov-09 21:33N 40°55' E 028°48'2510.5
2014-Nov-09 19:07N 41°15' E 029°08'7 9.0
2014-Nov-09 18:21N 41°22' E 029°08'8 9.8
2014-Nov-09 17:33N 41°30' E 029°09'1 1.1
2014-Nov-09 16:24N 41°29' E 029°07'6 7.5
2014-Nov-09 15:33N 41°35' E 029°05'3711.7
2014-Nov-09 12:27N 42°12' E 029°01'6212.0
2014-Nov-09 07:15N 43°14' E 028°53'  
Track history (hours):
 
Tides and Currents Weather Stations Pressure Air Temp Water Temp Dewpoint Dewpoint Depression Visibility Wind Speed Wind Dir Waves Ship Positions

Dobrota

Last reported at 2014-Nov-15 23:29 UTC. Time now 2014-Nov-24 17:44 UTC.
Position N 32°22' E 015°19'.
Warning: this ship's position is 8 days out of date.

Length 185 m; draft 9.8 m.

Type: Cargo ship. MMSI: 376409000.

Date/timePositionNaut miles runAvg speedWind from/ knotsBaromVisibWave heightAir tempDewpointWater temp
2014-Nov-15 23:29N 32°22' E 015°19'  
2014-Nov-11 14:30N 36°36' E 023°35'1212.5
2014-Nov-11 13:33N 36°46' E 023°44'1312.5
2014-Nov-11 12:33N 36°57' E 023°53'1312.5
2014-Nov-11 11:33N 37°07' E 024°01'1312.6
2014-Nov-11 10:33N 37°17' E 024°10'1612.7
2014-Nov-11 09:17N 37°31' E 024°21'912.5
2014-Nov-11 08:33N 37°39' E 024°27'1312.3
2014-Nov-11 07:32N 37°50' E 024°32'260 7.9
2014-Nov-09 22:32N 40°53' E 028°33'1211.6
2014-Nov-09 21:33N 40°55' E 028°48'2510.5
2014-Nov-09 19:07N 41°15' E 029°08'7 9.0
2014-Nov-09 18:21N 41°22' E 029°08'8 9.8
2014-Nov-09 17:33N 41°30' E 029°09'1 1.1
2014-Nov-09 16:24N 41°29' E 029°07'6 7.5
2014-Nov-09 15:33N 41°35' E 029°05'3711.7
2014-Nov-09 12:27N 42°12' E 029°01'6212.0
2014-Nov-09 07:15N 43°14' E 028°53'  

Dump ship's entire track history